Terminal Aerodrome Forecast
Issued by NWS

Home | Current Version | Previous Version | Text Only | Print | Product List | Glossary On
Versions: 1 2 3 4 5 6 7 8 9 10 11 12 13 14 15 16 17 18 19 20
000
FTUS44 KLZK 282300
TAFLLQ
TAF
KLLQ 282320Z 0100/0124 04004KT P6SM VCSH OVC100
     FM011200 05003KT 5SM -RA BR SCT007 OVC020
     FM011500 07003KT 5SM -RA BR OVC007=

USA.gov is the U.S. government's official web portal to all federal, state and local government web resources and services.